sensor_id;sensor_type;location;lat;lon;timestamp;P1;durP1;ratioP1;P2;durP2;ratioP2
58878;SDS011;44660;42.664;23.266;2023-02-28T00:00:22;44.63;;;20.75;;
58878;SDS011;44660;42.664;23.266;2023-02-28T00:02:49;30.40;;;15.52;;
58878;SDS011;44660;42.664;23.266;2023-02-28T00:05:16;84.00;;;33.33;;
58878;SDS011;44660;42.664;23.266;2023-02-28T00:07:44;33.35;;;17.02;;
58878;SDS011;44660;42.664;23.266;2023-02-28T00:10:14;25.25;;;13.65;;
58878;SDS011;44660;42.664;23.266;2023-02-28T00:12:46;34.85;;;17.63;;
58878;SDS011;44660;42.664;23.266;2023-02-28T00:17:41;19.13;;;11.80;;
58878;SDS011;44660;42.664;23.266;2023-02-28T00:20:08;25.50;;;14.20;;
58878;SDS011;44660;42.664;23.266;2023-02-28T00:22:40;20.80;;;12.57;;
58878;SDS011;44660;42.664;23.266;2023-02-28T00:25:08;20.58;;;11.13;;
58878;SDS011;44660;42.664;23.266;2023-02-28T00:27:35;16.33;;;8.98;;
58878;SDS011;44660;42.664;23.266;2023-02-28T00:30:01;13.55;;;8.38;;
58878;SDS011;44660;42.664;23.266;2023-02-28T00:32:28;23.13;;;10.02;;
58878;SDS011;44660;42.664;23.266;2023-02-28T00:34:54;226.75;;;65.03;;
58878;SDS011;44660;42.664;23.266;2023-02-28T00:37:20;119.38;;;37.45;;
58878;SDS011;44660;42.664;23.266;2023-02-28T00:39:46;210.13;;;68.03;;
58878;SDS011;44660;42.664;23.266;2023-02-28T00:42:11;78.45;;;27.10;;
58878;SDS011;44660;42.664;23.266;2023-02-28T00:44:36;51.17;;;23.45;;
58878;SDS011;44660;42.664;23.266;2023-02-28T00:47:02;27.02;;;13.45;;
58878;SDS011;44660;42.664;23.266;2023-02-28T00:49:27;19.95;;;11.40;;
58878;SDS011;44660;42.664;23.266;2023-02-28T00:51:53;33.60;;;21.92;;
58878;SDS011;44660;42.664;23.266;2023-02-28T00:54:20;28.58;;;16.52;;
58878;SDS011;44660;42.664;23.266;2023-02-28T00:56:47;24.27;;;14.00;;
58878;SDS011;44660;42.664;23.266;2023-02-28T00:59:13;22.98;;;13.55;;
58878;SDS011;44660;42.664;23.266;2023-02-28T01:01:39;24.02;;;14.40;;
58878;SDS011;44660;42.664;23.266;2023-02-28T01:04:05;24.15;;;14.25;;
58878;SDS011;44660;42.664;23.266;2023-02-28T01:06:31;22.63;;;12.38;;
58878;SDS011;44660;42.664;23.266;2023-02-28T01:08:57;142.00;;;48.53;;
58878;SDS011;44660;42.664;23.266;2023-02-28T01:11:22;48.95;;;22.00;;
58878;SDS011;44660;42.664;23.266;2023-02-28T01:13:48;27.48;;;16.38;;
58878;SDS011;44660;42.664;23.266;2023-02-28T01:16:13;51.38;;;24.10;;
58878;SDS011;44660;42.664;23.266;2023-02-28T01:18:39;37.78;;;19.10;;
58878;SDS011;44660;42.664;23.266;2023-02-28T01:21:08;33.33;;;17.85;;
58878;SDS011;44660;42.664;23.266;2023-02-28T01:23:36;33.95;;;19.02;;
58878;SDS011;44660;42.664;23.266;2023-02-28T01:26:09;37.42;;;19.08;;
58878;SDS011;44660;42.664;23.266;2023-02-28T01:28:36;36.45;;;19.17;;
58878;SDS011;44660;42.664;23.266;2023-02-28T01:31:02;33.15;;;17.67;;
58878;SDS011;44660;42.664;23.266;2023-02-28T01:33:28;36.05;;;18.40;;
58878;SDS011;44660;42.664;23.266;2023-02-28T01:38:26;39.22;;;19.45;;
58878;SDS011;44660;42.664;23.266;2023-02-28T01:40:51;37.58;;;19.55;;
58878;SDS011;44660;42.664;23.266;2023-02-28T01:43:21;45.50;;;22.88;;
58878;SDS011;44660;42.664;23.266;2023-02-28T01:45:53;41.78;;;21.70;;
58878;SDS011;44660;42.664;23.266;2023-02-28T01:48:21;39.83;;;20.85;;
58878;SDS011;44660;42.664;23.266;2023-02-28T01:50:54;44.17;;;22.08;;
58878;SDS011;44660;42.664;23.266;2023-02-28T01:53:26;41.92;;;21.65;;
58878;SDS011;44660;42.664;23.266;2023-02-28T01:55:57;41.38;;;20.67;;
58878;SDS011;44660;42.664;23.266;2023-02-28T01:58:23;44.33;;;21.88;;
58878;SDS011;44660;42.664;23.266;2023-02-28T02:00:49;44.80;;;20.35;;
58878;SDS011;44660;42.664;23.266;2023-02-28T02:03:15;41.83;;;20.42;;
58878;SDS011;44660;42.664;23.266;2023-02-28T02:05:44;41.38;;;20.55;;
58878;SDS011;44660;42.664;23.266;2023-02-28T02:08:13;40.70;;;20.25;;
58878;SDS011;44660;42.664;23.266;2023-02-28T02:10:43;41.70;;;19.73;;
58878;SDS011;44660;42.664;23.266;2023-02-28T02:16:11;40.80;;;19.95;;
58878;SDS011;44660;42.664;23.266;2023-02-28T02:18:54;43.45;;;19.88;;
58878;SDS011;44660;42.664;23.266;2023-02-28T02:29:23;51.58;;;22.52;;
58878;SDS011;44660;42.664;23.266;2023-02-28T02:32:22;49.33;;;21.17;;
58878;SDS011;44660;42.664;23.266;2023-02-28T02:37:55;46.80;;;21.63;;
58878;SDS011;44660;42.664;23.266;2023-02-28T02:45:51;45.17;;;20.27;;
58878;SDS011;44660;42.664;23.266;2023-02-28T02:48:20;45.45;;;21.17;;
58878;SDS011;44660;42.664;23.266;2023-02-28T02:50:52;42.75;;;20.05;;
58878;SDS011;44660;42.664;23.266;2023-02-28T02:53:23;48.60;;;20.67;;
58878;SDS011;44660;42.664;23.266;2023-02-28T02:55:53;39.50;;;18.42;;
58878;SDS011;44660;42.664;23.266;2023-02-28T02:58:22;38.40;;;18.77;;
58878;SDS011;44660;42.664;23.266;2023-02-28T03:00:52;45.35;;;19.25;;
58878;SDS011;44660;42.664;23.266;2023-02-28T03:03:20;41.97;;;19.38;;
58878;SDS011;44660;42.664;23.266;2023-02-28T03:05:54;39.92;;;18.35;;
58878;SDS011;44660;42.664;23.266;2023-02-28T03:08:21;39.55;;;18.38;;
58878;SDS011;44660;42.664;23.266;2023-02-28T03:10:50;43.97;;;19.80;;
58878;SDS011;44660;42.664;23.266;2023-02-28T03:18:54;60.63;;;24.35;;
58878;SDS011;44660;42.664;23.266;2023-02-28T03:24:19;214.07;;;75.60;;
58878;SDS011;44660;42.664;23.266;2023-02-28T03:27:06;178.95;;;67.88;;
58878;SDS011;44660;42.664;23.266;2023-02-28T03:29:41;99.70;;;40.80;;
58878;SDS011;44660;42.664;23.266;2023-02-28T03:35:34;89.05;;;39.42;;
58878;SDS011;44660;42.664;23.266;2023-02-28T03:38:14;66.47;;;28.38;;
58878;SDS011;44660;42.664;23.266;2023-02-28T03:40:47;63.95;;;26.30;;
58878;SDS011;44660;42.664;23.266;2023-02-28T03:43:18;52.03;;;21.77;;
58878;SDS011;44660;42.664;23.266;2023-02-28T03:45:49;56.17;;;22.67;;
58878;SDS011;44660;42.664;23.266;2023-02-28T03:48:19;54.70;;;24.45;;
58878;SDS011;44660;42.664;23.266;2023-02-28T03:50:49;53.88;;;23.90;;
58878;SDS011;44660;42.664;23.266;2023-02-28T03:53:23;56.97;;;24.55;;
58878;SDS011;44660;42.664;23.266;2023-02-28T03:55:59;52.63;;;21.83;;
58878;SDS011;44660;42.664;23.266;2023-02-28T03:58:48;47.88;;;22.35;;
58878;SDS011;44660;42.664;23.266;2023-02-28T04:01:24;61.38;;;24.95;;
58878;SDS011;44660;42.664;23.266;2023-02-28T04:03:55;73.43;;;29.90;;
58878;SDS011;44660;42.664;23.266;2023-02-28T04:06:22;46.00;;;21.55;;
58878;SDS011;44660;42.664;23.266;2023-02-28T04:08:48;45.10;;;21.40;;
58878;SDS011;44660;42.664;23.266;2023-02-28T04:11:20;44.38;;;20.73;;
58878;SDS011;44660;42.664;23.266;2023-02-28T04:13:48;44.63;;;19.75;;
58878;SDS011;44660;42.664;23.266;2023-02-28T04:16:14;44.25;;;18.88;;
58878;SDS011;44660;42.664;23.266;2023-02-28T04:18:41;42.55;;;18.70;;
58878;SDS011;44660;42.664;23.266;2023-02-28T04:21:10;41.60;;;19.40;;
58878;SDS011;44660;42.664;23.266;2023-02-28T04:23:36;39.78;;;19.88;;
58878;SDS011;44660;42.664;23.266;2023-02-28T04:26:01;47.72;;;20.08;;
58878;SDS011;44660;42.664;23.266;2023-02-28T04:28:28;40.80;;;20.05;;
58878;SDS011;44660;42.664;23.266;2023-02-28T04:30:58;38.40;;;19.10;;
58878;SDS011;44660;42.664;23.266;2023-02-28T04:33:25;50.45;;;24.00;;
58878;SDS011;44660;42.664;23.266;2023-02-28T04:36:06;53.65;;;26.75;;
58878;SDS011;44660;42.664;23.266;2023-02-28T04:38:36;70.38;;;29.77;;
58878;SDS011;44660;42.664;23.266;2023-02-28T04:41:04;162.98;;;56.45;;
58878;SDS011;44660;42.664;23.266;2023-02-28T04:43:30;76.28;;;32.17;;
58878;SDS011;44660;42.664;23.266;2023-02-28T04:45:57;143.63;;;56.72;;
58878;SDS011;44660;42.664;23.266;2023-02-28T04:48:27;148.75;;;62.88;;
58878;SDS011;44660;42.664;23.266;2023-02-28T04:50:53;94.38;;;42.90;;
58878;SDS011;44660;42.664;23.266;2023-02-28T04:53:19;196.32;;;83.68;;
58878;SDS011;44660;42.664;23.266;2023-02-28T04:55:45;104.32;;;46.90;;
58878;SDS011;44660;42.664;23.266;2023-02-28T04:58:11;122.22;;;54.95;;
58878;SDS011;44660;42.664;23.266;2023-02-28T05:00:38;139.70;;;60.05;;
58878;SDS011;44660;42.664;23.266;2023-02-28T05:03:04;80.97;;;34.22;;
58878;SDS011;44660;42.664;23.266;2023-02-28T05:05:29;74.63;;;35.35;;
58878;SDS011;44660;42.664;23.266;2023-02-28T05:07:54;54.95;;;25.40;;
58878;SDS011;44660;42.664;23.266;2023-02-28T05:10:22;38.65;;;19.23;;
58878;SDS011;44660;42.664;23.266;2023-02-28T05:12:48;34.67;;;17.20;;
58878;SDS011;44660;42.664;23.266;2023-02-28T05:15:14;38.80;;;18.65;;
58878;SDS011;44660;42.664;23.266;2023-02-28T05:17:40;36.13;;;17.33;;
58878;SDS011;44660;42.664;23.266;2023-02-28T05:20:06;34.72;;;16.88;;
58878;SDS011;44660;42.664;23.266;2023-02-28T05:22:32;34.70;;;15.82;;
58878;SDS011;44660;42.664;23.266;2023-02-28T05:24:57;30.88;;;15.50;;
58878;SDS011;44660;42.664;23.266;2023-02-28T05:27:23;34.22;;;16.95;;
58878;SDS011;44660;42.664;23.266;2023-02-28T05:29:48;32.95;;;16.65;;
58878;SDS011;44660;42.664;23.266;2023-02-28T05:32:14;38.40;;;17.52;;
58878;SDS011;44660;42.664;23.266;2023-02-28T05:34:40;34.75;;;16.35;;
58878;SDS011;44660;42.664;23.266;2023-02-28T05:37:07;41.80;;;20.77;;
58878;SDS011;44660;42.664;23.266;2023-02-28T05:39:37;33.47;;;17.25;;
58878;SDS011;44660;42.664;23.266;2023-02-28T05:42:02;35.25;;;16.60;;
58878;SDS011;44660;42.664;23.266;2023-02-28T05:44:28;32.45;;;14.90;;
58878;SDS011;44660;42.664;23.266;2023-02-28T05:46:53;37.17;;;18.92;;
58878;SDS011;44660;42.664;23.266;2023-02-28T05:49:19;58.90;;;28.92;;
58878;SDS011;44660;42.664;23.266;2023-02-28T05:51:44;101.85;;;45.40;;
58878;SDS011;44660;42.664;23.266;2023-02-28T05:54:10;67.93;;;24.67;;
58878;SDS011;44660;42.664;23.266;2023-02-28T05:56:36;78.45;;;24.80;;
58878;SDS011;44660;42.664;23.266;2023-02-28T05:59:04;45.13;;;21.30;;
58878;SDS011;44660;42.664;23.266;2023-02-28T06:01:34;32.65;;;16.42;;
58878;SDS011;44660;42.664;23.266;2023-02-28T06:04:02;30.58;;;15.18;;
58878;SDS011;44660;42.664;23.266;2023-02-28T06:06:29;33.30;;;15.20;;
58878;SDS011;44660;42.664;23.266;2023-02-28T06:08:55;29.80;;;14.88;;
58878;SDS011;44660;42.664;23.266;2023-02-28T06:11:21;30.65;;;15.52;;
58878;SDS011;44660;42.664;23.266;2023-02-28T06:13:52;32.50;;;16.10;;
58878;SDS011;44660;42.664;23.266;2023-02-28T06:16:19;32.50;;;16.52;;
58878;SDS011;44660;42.664;23.266;2023-02-28T06:18:45;35.33;;;17.75;;
58878;SDS011;44660;42.664;23.266;2023-02-28T06:21:11;34.35;;;17.42;;
58878;SDS011;44660;42.664;23.266;2023-02-28T06:23:37;39.50;;;18.70;;
58878;SDS011;44660;42.664;23.266;2023-02-28T06:26:03;40.20;;;20.65;;
58878;SDS011;44660;42.664;23.266;2023-02-28T06:28:28;34.65;;;17.05;;
58878;SDS011;44660;42.664;23.266;2023-02-28T06:30:54;35.45;;;16.88;;
58878;SDS011;44660;42.664;23.266;2023-02-28T06:33:19;35.10;;;17.92;;
58878;SDS011;44660;42.664;23.266;2023-02-28T06:35:51;30.55;;;17.02;;
58878;SDS011;44660;42.664;23.266;2023-02-28T06:38:17;34.13;;;16.65;;
58878;SDS011;44660;42.664;23.266;2023-02-28T06:40:43;37.13;;;18.88;;
58878;SDS011;44660;42.664;23.266;2023-02-28T06:43:09;36.67;;;17.30;;
58878;SDS011;44660;42.664;23.266;2023-02-28T06:45:40;41.72;;;21.73;;
58878;SDS011;44660;42.664;23.266;2023-02-28T06:48:06;36.85;;;20.40;;
58878;SDS011;44660;42.664;23.266;2023-02-28T06:50:32;57.50;;;30.50;;
58878;SDS011;44660;42.664;23.266;2023-02-28T06:52:58;56.70;;;28.52;;
58878;SDS011;44660;42.664;23.266;2023-02-28T06:55:23;64.93;;;33.55;;
58878;SDS011;44660;42.664;23.266;2023-02-28T06:57:49;44.35;;;21.45;;
58878;SDS011;44660;42.664;23.266;2023-02-28T07:00:15;37.67;;;18.90;;
58878;SDS011;44660;42.664;23.266;2023-02-28T07:02:41;40.70;;;20.63;;
58878;SDS011;44660;42.664;23.266;2023-02-28T07:05:07;39.40;;;19.17;;
58878;SDS011;44660;42.664;23.266;2023-02-28T07:07:32;45.55;;;20.98;;
58878;SDS011;44660;42.664;23.266;2023-02-28T07:09:59;52.13;;;23.30;;
58878;SDS011;44660;42.664;23.266;2023-02-28T07:12:24;58.83;;;25.67;;
58878;SDS011;44660;42.664;23.266;2023-02-28T07:14:50;64.20;;;28.00;;
58878;SDS011;44660;42.664;23.266;2023-02-28T07:17:15;61.10;;;27.08;;
58878;SDS011;44660;42.664;23.266;2023-02-28T07:19:41;56.00;;;26.75;;
58878;SDS011;44660;42.664;23.266;2023-02-28T07:22:06;57.03;;;25.40;;
58878;SDS011;44660;42.664;23.266;2023-02-28T07:24:32;55.72;;;26.88;;
58878;SDS011;44660;42.664;23.266;2023-02-28T07:26:58;60.38;;;27.83;;
58878;SDS011;44660;42.664;23.266;2023-02-28T07:29:24;69.57;;;28.90;;
58878;SDS011;44660;42.664;23.266;2023-02-28T07:31:50;67.15;;;29.52;;
58878;SDS011;44660;42.664;23.266;2023-02-28T07:34:18;70.60;;;29.45;;
58878;SDS011;44660;42.664;23.266;2023-02-28T07:36:44;63.78;;;30.10;;
58878;SDS011;44660;42.664;23.266;2023-02-28T07:39:09;74.03;;;33.25;;
58878;SDS011;44660;42.664;23.266;2023-02-28T07:41:35;81.28;;;37.03;;
58878;SDS011;44660;42.664;23.266;2023-02-28T07:44:04;70.55;;;31.17;;
58878;SDS011;44660;42.664;23.266;2023-02-28T07:46:30;73.55;;;31.48;;
58878;SDS011;44660;42.664;23.266;2023-02-28T07:51:28;73.63;;;29.83;;
58878;SDS011;44660;42.664;23.266;2023-02-28T07:53:56;65.17;;;29.77;;
58878;SDS011;44660;42.664;23.266;2023-02-28T07:56:22;70.38;;;30.58;;
58878;SDS011;44660;42.664;23.266;2023-02-28T07:58:48;68.20;;;31.02;;
58878;SDS011;44660;42.664;23.266;2023-02-28T08:01:13;65.57;;;30.13;;
58878;SDS011;44660;42.664;23.266;2023-02-28T08:03:39;71.93;;;30.70;;
58878;SDS011;44660;42.664;23.266;2023-02-28T08:06:07;72.85;;;33.00;;
58878;SDS011;44660;42.664;23.266;2023-02-28T08:08:40;68.32;;;30.85;;
58878;SDS011;44660;42.664;23.266;2023-02-28T08:11:05;61.13;;;28.77;;
58878;SDS011;44660;42.664;23.266;2023-02-28T08:13:31;68.85;;;29.63;;
58878;SDS011;44660;42.664;23.266;2023-02-28T08:15:57;68.25;;;28.42;;
58878;SDS011;44660;42.664;23.266;2023-02-28T08:18:22;64.50;;;29.02;;
58878;SDS011;44660;42.664;23.266;2023-02-28T08:20:48;64.60;;;28.80;;
58878;SDS011;44660;42.664;23.266;2023-02-28T08:23:14;57.38;;;26.63;;
58878;SDS011;44660;42.664;23.266;2023-02-28T08:25:39;67.45;;;27.17;;
58878;SDS011;44660;42.664;23.266;2023-02-28T08:28:05;61.40;;;28.20;;
58878;SDS011;44660;42.664;23.266;2023-02-28T08:30:30;54.28;;;26.67;;
58878;SDS011;44660;42.664;23.266;2023-02-28T08:32:55;65.22;;;28.15;;
58878;SDS011;44660;42.664;23.266;2023-02-28T08:35:21;65.68;;;29.08;;
58878;SDS011;44660;42.664;23.266;2023-02-28T08:37:47;65.28;;;28.55;;
58878;SDS011;44660;42.664;23.266;2023-02-28T08:40:14;71.82;;;27.95;;
58878;SDS011;44660;42.664;23.266;2023-02-28T08:42:44;66.90;;;27.47;;
58878;SDS011;44660;42.664;23.266;2023-02-28T08:45:10;63.88;;;27.92;;
58878;SDS011;44660;42.664;23.266;2023-02-28T08:47:36;70.93;;;29.00;;
58878;SDS011;44660;42.664;23.266;2023-02-28T08:50:02;68.65;;;29.50;;
58878;SDS011;44660;42.664;23.266;2023-02-28T08:52:28;82.93;;;30.08;;
58878;SDS011;44660;42.664;23.266;2023-02-28T08:54:53;78.10;;;29.17;;
58878;SDS011;44660;42.664;23.266;2023-02-28T08:57:19;68.75;;;28.70;;
58878;SDS011;44660;42.664;23.266;2023-02-28T08:59:45;61.72;;;26.83;;
58878;SDS011;44660;42.664;23.266;2023-02-28T09:02:13;59.13;;;27.35;;
58878;SDS011;44660;42.664;23.266;2023-02-28T09:04:39;58.42;;;26.30;;
58878;SDS011;44660;42.664;23.266;2023-02-28T09:07:05;58.72;;;26.27;;
58878;SDS011;44660;42.664;23.266;2023-02-28T09:09:31;64.25;;;28.52;;
58878;SDS011;44660;42.664;23.266;2023-02-28T09:11:57;75.63;;;28.00;;
58878;SDS011;44660;42.664;23.266;2023-02-28T09:14:22;67.15;;;28.92;;
58878;SDS011;44660;42.664;23.266;2023-02-28T09:16:48;63.42;;;28.92;;
58878;SDS011;44660;42.664;23.266;2023-02-28T09:19:14;76.63;;;29.98;;
58878;SDS011;44660;42.664;23.266;2023-02-28T09:21:39;70.05;;;30.15;;
58878;SDS011;44660;42.664;23.266;2023-02-28T09:24:05;71.72;;;29.83;;
58878;SDS011;44660;42.664;23.266;2023-02-28T09:26:31;72.03;;;30.27;;
58878;SDS011;44660;42.664;23.266;2023-02-28T09:28:57;66.00;;;29.90;;
58878;SDS011;44660;42.664;23.266;2023-02-28T09:31:26;65.82;;;29.05;;
58878;SDS011;44660;42.664;23.266;2023-02-28T09:33:54;69.57;;;30.67;;
58878;SDS011;44660;42.664;23.266;2023-02-28T09:36:21;63.42;;;28.80;;
58878;SDS011;44660;42.664;23.266;2023-02-28T09:38:47;68.97;;;28.80;;
58878;SDS011;44660;42.664;23.266;2023-02-28T09:41:15;61.58;;;30.17;;
58878;SDS011;44660;42.664;23.266;2023-02-28T09:43:45;62.35;;;29.08;;
58878;SDS011;44660;42.664;23.266;2023-02-28T09:48:48;65.43;;;29.88;;
58878;SDS011;44660;42.664;23.266;2023-02-28T09:51:23;63.78;;;28.58;;
58878;SDS011;44660;42.664;23.266;2023-02-28T09:53:55;60.13;;;27.63;;
58878;SDS011;44660;42.664;23.266;2023-02-28T09:56:21;62.97;;;27.10;;
58878;SDS011;44660;42.664;23.266;2023-02-28T09:59:01;61.92;;;29.77;;
58878;SDS011;44660;42.664;23.266;2023-02-28T10:02:02;60.78;;;29.35;;
58878;SDS011;44660;42.664;23.266;2023-02-28T10:04:43;62.85;;;28.23;;
58878;SDS011;44660;42.664;23.266;2023-02-28T10:09:53;54.67;;;27.58;;
58878;SDS011;44660;42.664;23.266;2023-02-28T10:12:23;61.53;;;26.77;;
58878;SDS011;44660;42.664;23.266;2023-02-28T10:14:52;56.67;;;27.48;;
58878;SDS011;44660;42.664;23.266;2023-02-28T10:17:24;63.58;;;27.65;;
58878;SDS011;44660;42.664;23.266;2023-02-28T10:22:33;56.22;;;27.38;;
58878;SDS011;44660;42.664;23.266;2023-02-28T10:25:05;63.83;;;28.50;;
58878;SDS011;44660;42.664;23.266;2023-02-28T10:27:42;63.35;;;28.35;;
58878;SDS011;44660;42.664;23.266;2023-02-28T10:30:09;55.28;;;29.08;;
58878;SDS011;44660;42.664;23.266;2023-02-28T10:32:43;90.45;;;46.30;;
58878;SDS011;44660;42.664;23.266;2023-02-28T10:37:44;66.63;;;31.75;;
58878;SDS011;44660;42.664;23.266;2023-02-28T10:42:54;53.70;;;26.95;;
58878;SDS011;44660;42.664;23.266;2023-02-28T10:45:26;57.38;;;26.83;;
58878;SDS011;44660;42.664;23.266;2023-02-28T10:48:02;54.38;;;24.23;;
58878;SDS011;44660;42.664;23.266;2023-02-28T10:50:39;43.60;;;21.50;;
58878;SDS011;44660;42.664;23.266;2023-02-28T10:55:35;39.78;;;13.63;;
58878;SDS011;44660;42.664;23.266;2023-02-28T10:58:01;34.17;;;13.20;;
58878;SDS011;44660;42.664;23.266;2023-02-28T11:00:31;33.40;;;12.15;;
58878;SDS011;44660;42.664;23.266;2023-02-28T11:02:59;27.13;;;11.13;;
58878;SDS011;44660;42.664;23.266;2023-02-28T11:08:06;24.15;;;10.48;;
58878;SDS011;44660;42.664;23.266;2023-02-28T11:10:37;26.40;;;9.80;;
58878;SDS011;44660;42.664;23.266;2023-02-28T11:13:03;22.08;;;9.35;;
58878;SDS011;44660;42.664;23.266;2023-02-28T11:15:30;30.05;;;10.00;;
58878;SDS011;44660;42.664;23.266;2023-02-28T11:20:30;23.45;;;10.30;;
58878;SDS011;44660;42.664;23.266;2023-02-28T11:22:58;25.10;;;10.77;;
58878;SDS011;44660;42.664;23.266;2023-02-28T11:25:30;27.80;;;10.68;;
58878;SDS011;44660;42.664;23.266;2023-02-28T11:28:02;32.45;;;12.10;;
58878;SDS011;44660;42.664;23.266;2023-02-28T11:32:57;27.40;;;12.10;;
58878;SDS011;44660;42.664;23.266;2023-02-28T11:35:24;28.40;;;10.82;;
58878;SDS011;44660;42.664;23.266;2023-02-28T11:37:50;24.42;;;11.50;;
58878;SDS011;44660;42.664;23.266;2023-02-28T11:40:18;29.08;;;12.02;;
58878;SDS011;44660;42.664;23.266;2023-02-28T11:43:25;23.70;;;11.68;;
58878;SDS011;44660;42.664;23.266;2023-02-28T11:52:36;22.75;;;10.50;;
58878;SDS011;44660;42.664;23.266;2023-02-28T12:01:14;32.53;;;14.20;;
58878;SDS011;44660;42.664;23.266;2023-02-28T12:03:56;25.13;;;12.43;;
58878;SDS011;44660;42.664;23.266;2023-02-28T12:28:53;27.42;;;12.65;;
58878;SDS011;44660;42.664;23.266;2023-02-28T12:31:29;22.33;;;11.57;;
58878;SDS011;44660;42.664;23.266;2023-02-28T12:34:05;23.75;;;10.48;;
58878;SDS011;44660;42.664;23.266;2023-02-28T12:36:35;30.35;;;11.57;;
58878;SDS011;44660;42.664;23.266;2023-02-28T12:39:10;26.92;;;11.18;;
58878;SDS011;44660;42.664;23.266;2023-02-28T12:41:48;26.25;;;11.50;;
58878;SDS011;44660;42.664;23.266;2023-02-28T12:44:30;27.10;;;12.10;;
58878;SDS011;44660;42.664;23.266;2023-02-28T12:47:03;25.45;;;11.35;;
58878;SDS011;44660;42.664;23.266;2023-02-28T12:49:42;31.58;;;13.15;;
58878;SDS011;44660;42.664;23.266;2023-02-28T12:52:12;24.50;;;11.02;;
58878;SDS011;44660;42.664;23.266;2023-02-28T12:57:25;28.48;;;12.07;;
58878;SDS011;44660;42.664;23.266;2023-02-28T13:00:17;26.90;;;11.93;;
58878;SDS011;44660;42.664;23.266;2023-02-28T13:02:53;25.15;;;12.25;;
58878;SDS011;44660;42.664;23.266;2023-02-28T13:11:23;30.92;;;12.32;;
58878;SDS011;44660;42.664;23.266;2023-02-28T13:14:03;22.27;;;10.52;;
58878;SDS011;44660;42.664;23.266;2023-02-28T13:17:17;22.60;;;10.52;;
58878;SDS011;44660;42.664;23.266;2023-02-28T13:19:22;29.83;;;11.77;;
58878;SDS011;44660;42.664;23.266;2023-02-28T13:21:50;27.38;;;12.18;;
58878;SDS011;44660;42.664;23.266;2023-02-28T13:34:31;23.00;;;10.55;;
58878;SDS011;44660;42.664;23.266;2023-02-28T13:47:28;23.92;;;9.85;;
58878;SDS011;44660;42.664;23.266;2023-02-28T13:50:42;17.67;;;7.90;;
58878;SDS011;44660;42.664;23.266;2023-02-28T13:52:52;19.23;;;7.28;;
58878;SDS011;44660;42.664;23.266;2023-02-28T13:58:10;21.65;;;8.65;;
58878;SDS011;44660;42.664;23.266;2023-02-28T14:06:29;17.98;;;8.02;;
58878;SDS011;44660;42.664;23.266;2023-02-28T14:11:39;24.40;;;9.65;;
58878;SDS011;44660;42.664;23.266;2023-02-28T14:14:06;21.25;;;8.43;;
58878;SDS011;44660;42.664;23.266;2023-02-28T14:16:38;19.20;;;8.43;;
58878;SDS011;44660;42.664;23.266;2023-02-28T14:19:15;20.80;;;8.80;;
58878;SDS011;44660;42.664;23.266;2023-02-28T14:41:42;20.10;;;9.13;;
58878;SDS011;44660;42.664;23.266;2023-02-28T14:44:17;23.52;;;8.70;;
58878;SDS011;44660;42.664;23.266;2023-02-28T14:46:52;29.75;;;9.50;;
58878;SDS011;44660;42.664;23.266;2023-02-28T14:49:53;22.13;;;8.77;;
58878;SDS011;44660;42.664;23.266;2023-02-28T14:52:14;21.50;;;8.85;;
58878;SDS011;44660;42.664;23.266;2023-02-28T14:54:44;24.27;;;8.57;;
58878;SDS011;44660;42.664;23.266;2023-02-28T14:57:27;18.58;;;8.75;;
58878;SDS011;44660;42.664;23.266;2023-02-28T14:59:58;21.58;;;8.77;;
58878;SDS011;44660;42.664;23.266;2023-02-28T15:02:25;17.77;;;8.73;;
58878;SDS011;44660;42.664;23.266;2023-02-28T15:04:55;24.10;;;9.00;;
58878;SDS011;44660;42.664;23.266;2023-02-28T15:07:20;25.10;;;9.35;;
58878;SDS011;44660;42.664;23.266;2023-02-28T15:10:06;17.67;;;8.50;;
58878;SDS011;44660;42.664;23.266;2023-02-28T15:12:36;26.52;;;8.40;;
58878;SDS011;44660;42.664;23.266;2023-02-28T15:15:02;18.42;;;8.30;;
58878;SDS011;44660;42.664;23.266;2023-02-28T15:17:28;22.25;;;9.15;;
58878;SDS011;44660;42.664;23.266;2023-02-28T15:19:54;21.00;;;8.63;;
58878;SDS011;44660;42.664;23.266;2023-02-28T15:22:25;22.02;;;9.45;;
58878;SDS011;44660;42.664;23.266;2023-02-28T15:24:54;23.27;;;9.52;;
58878;SDS011;44660;42.664;23.266;2023-02-28T15:27:22;21.42;;;9.35;;
58878;SDS011;44660;42.664;23.266;2023-02-28T15:29:53;22.90;;;9.05;;
58878;SDS011;44660;42.664;23.266;2023-02-28T15:32:32;29.90;;;10.90;;
58878;SDS011;44660;42.664;23.266;2023-02-28T15:38:03;22.33;;;10.38;;
58878;SDS011;44660;42.664;23.266;2023-02-28T15:40:41;28.27;;;10.82;;
58878;SDS011;44660;42.664;23.266;2023-02-28T15:43:17;23.27;;;9.95;;
58878;SDS011;44660;42.664;23.266;2023-02-28T15:45:52;22.27;;;9.50;;
58878;SDS011;44660;42.664;23.266;2023-02-28T15:49:03;20.48;;;9.43;;
58878;SDS011;44660;42.664;23.266;2023-02-28T15:51:18;19.83;;;8.77;;
58878;SDS011;44660;42.664;23.266;2023-02-28T15:53:48;22.70;;;8.82;;
58878;SDS011;44660;42.664;23.266;2023-02-28T15:56:24;24.48;;;10.27;;
58878;SDS011;44660;42.664;23.266;2023-02-28T15:58:53;21.35;;;9.65;;
58878;SDS011;44660;42.664;23.266;2023-02-28T16:03:50;20.08;;;8.45;;
58878;SDS011;44660;42.664;23.266;2023-02-28T16:08:58;19.25;;;8.95;;
58878;SDS011;44660;42.664;23.266;2023-02-28T16:11:23;19.67;;;8.32;;
58878;SDS011;44660;42.664;23.266;2023-02-28T16:13:49;17.38;;;7.38;;
58878;SDS011;44660;42.664;23.266;2023-02-28T16:16:20;14.77;;;7.30;;
58878;SDS011;44660;42.664;23.266;2023-02-28T16:18:49;20.55;;;8.43;;
58878;SDS011;44660;42.664;23.266;2023-02-28T16:21:15;17.15;;;8.13;;
58878;SDS011;44660;42.664;23.266;2023-02-28T16:23:40;15.02;;;7.80;;
58878;SDS011;44660;42.664;23.266;2023-02-28T16:26:06;16.15;;;8.50;;
58878;SDS011;44660;42.664;23.266;2023-02-28T16:28:35;17.10;;;8.18;;
58878;SDS011;44660;42.664;23.266;2023-02-28T16:31:04;13.75;;;7.32;;
58878;SDS011;44660;42.664;23.266;2023-02-28T16:33:31;15.52;;;8.27;;
58878;SDS011;44660;42.664;23.266;2023-02-28T16:35:57;14.18;;;7.70;;
58878;SDS011;44660;42.664;23.266;2023-02-28T16:38:23;17.90;;;7.95;;
58878;SDS011;44660;42.664;23.266;2023-02-28T16:40:50;15.32;;;7.95;;
58878;SDS011;44660;42.664;23.266;2023-02-28T16:43:19;13.73;;;8.30;;
58878;SDS011;44660;42.664;23.266;2023-02-28T16:45:48;12.00;;;7.63;;
58878;SDS011;44660;42.664;23.266;2023-02-28T16:48:20;12.43;;;7.45;;
58878;SDS011;44660;42.664;23.266;2023-02-28T16:50:45;12.68;;;7.32;;
58878;SDS011;44660;42.664;23.266;2023-02-28T16:53:10;16.70;;;8.23;;
58878;SDS011;44660;42.664;23.266;2023-02-28T16:55:36;16.85;;;9.80;;
58878;SDS011;44660;42.664;23.266;2023-02-28T16:58:02;13.73;;;7.07;;
58878;SDS011;44660;42.664;23.266;2023-02-28T17:00:29;16.10;;;8.02;;
58878;SDS011;44660;42.664;23.266;2023-02-28T17:02:56;14.57;;;7.50;;
58878;SDS011;44660;42.664;23.266;2023-02-28T17:05:24;12.32;;;7.22;;
58878;SDS011;44660;42.664;23.266;2023-02-28T17:07:50;14.20;;;7.75;;